Time;durP1;ratioP1;P1;durP2;ratioP2;P2;SDS_P1;SDS_P2;PMS_P1;PMS_P2;Temp;Humidity;BMP_temperature;BMP_pressure;BME280_temperature;BME280_humidity;BME280_pressure;Samples;Min_cycle;Max_cycle;Signal;HPM_P1;HPM_P2
2022/12/02 00:02:57;;;;;;;30.02;22.30;;;;;;;-0.76;100.00;99192.38;15282520;19;20050;-53
2022/12/02 00:08:27;;;;;;;29.58;22.20;;;;;;;-0.80;100.00;99183.75;15281331;19;20026;-53
2022/12/02 00:13:54;;;;;;;27.98;21.65;;;;;;;-0.83;100.00;99176.81;15282788;19;20481;-57
2022/12/02 00:19:19;;;;;;;30.10;22.23;;;;;;;-0.80;100.00;99179.28;15277854;19;20025;-52
2022/12/02 00:24:44;;;;;;;30.65;23.58;;;;;;;-0.83;100.00;99174.16;15280384;19;20018;-54
2022/12/02 00:30:11;;;;;;;30.67;23.50;;;;;;;-0.84;100.00;99177.72;15277651;19;20026;-55
2022/12/02 00:35:42;;;;;;;29.83;22.30;;;;;;;-0.84;100.00;99161.00;15272543;19;20024;-53
2022/12/02 00:41:07;;;;;;;30.38;22.67;;;;;;;-0.87;100.00;99162.00;15278604;19;20467;-54
2022/12/02 00:46:36;;;;;;;30.30;22.77;;;;;;;-0.87;100.00;99153.19;15279026;19;20037;-56
2022/12/02 00:52:01;;;;;;;28.90;22.35;;;;;;;-0.90;100.00;99161.28;15280094;19;20037;-56
2022/12/02 00:57:26;;;;;;;29.70;22.40;;;;;;;-0.90;100.00;99153.34;15279545;19;20046;-51
2022/12/02 01:02:53;;;;;;;29.73;22.83;;;;;;;-0.92;100.00;99161.34;15275733;19;20034;-53
2022/12/02 01:08:21;;;;;;;32.75;22.92;;;;;;;-0.91;100.00;99155.13;15275786;19;20026;-50
2022/12/02 01:13:46;;;;;;;29.55;22.75;;;;;;;-0.91;100.00;99164.84;15278620;19;20028;-50
2022/12/02 01:19:14;;;;;;;30.30;22.73;;;;;;;-0.93;100.00;99152.56;15270821;19;20090;-51
2022/12/02 01:24:39;;;;;;;31.65;23.30;;;;;;;-0.93;100.00;99155.19;15275370;19;20094;-51
2022/12/02 01:30:04;;;;;;;29.60;22.58;;;;;;;-0.91;100.00;99156.91;15273240;19;20046;-52
2022/12/02 01:35:38;;;;;;;28.63;21.88;;;;;;;-0.93;100.00;99155.19;15275703;19;20025;-52
2022/12/02 01:41:03;;;;;;;30.30;22.60;;;;;;;-0.93;100.00;99152.56;15279147;19;20022;-50
2022/12/02 01:46:28;;;;;;;30.15;22.85;;;;;;;-0.93;100.00;99143.75;15277448;19;20109;-52
2022/12/02 01:51:55;;;;;;;28.75;22.38;;;;;;;-0.95;100.00;99149.13;15279442;19;20548;-52
2022/12/02 01:57:23;;;;;;;28.30;21.67;;;;;;;-0.94;100.00;99153.47;15273811;19;20025;-50
2022/12/02 02:02:49;;;;;;;29.00;22.13;;;;;;;-0.91;100.00;99146.34;15273496;19;20035;-52
2022/12/02 02:08:19;;;;;;;26.65;20.80;;;;;;;-0.93;100.00;99139.34;15272973;19;20041;-53
2022/12/02 02:13:44;;;;;;;25.77;20.73;;;;;;;-0.89;100.00;99144.50;15271971;19;20029;-53
2022/12/02 02:19:10;;;;;;;28.63;22.02;;;;;;;-0.91;100.00;99127.81;15268378;19;20744;-50
2022/12/02 02:24:38;;;;;;;24.70;20.38;;;;;;;-0.91;100.00;99125.19;15268889;19;20479;-52
2022/12/02 02:30:04;;;;;;;26.63;20.23;;;;;;;-0.93;100.00;99118.16;15269383;19;20018;-52
2022/12/02 02:35:37;;;;;;;25.75;20.48;;;;;;;-0.91;100.00;99122.53;15268062;19;20023;-52
2022/12/02 02:41:05;;;;;;;25.52;20.15;;;;;;;-0.94;100.00;99119.09;15273113;19;20018;-53
2022/12/02 02:46:31;;;;;;;24.58;19.40;;;;;;;-0.94;100.00;99110.28;15271148;19;20042;-52
2022/12/02 02:51:56;;;;;;;23.95;19.40;;;;;;;-0.93;100.00;99106.72;15273040;19;20083;-50
2022/12/02 02:57:24;;;;;;;21.90;18.08;;;;;;;-0.96;100.00;99102.44;15271024;19;20018;-52
2022/12/02 03:02:53;;;;;;;22.42;18.70;;;;;;;-0.95;100.00;99106.78;15292219;19;20025;-53
2022/12/02 03:08:18;;;;;;;20.38;17.50;;;;;;;-0.94;100.00;99105.00;15300756;19;20081;-53
2022/12/02 03:13:49;;;;;;;21.42;17.92;;;;;;;-0.93;100.00;99101.41;15297250;19;20022;-55
2022/12/02 03:19:14;;;;;;;18.80;16.52;;;;;;;-0.95;100.00;99092.72;15294812;19;20025;-53
2022/12/02 03:24:39;;;;;;;18.92;16.00;;;;;;;-0.94;100.00;99092.66;15297911;19;20377;-54
2022/12/02 03:30:07;;;;;;;18.30;16.05;;;;;;;-0.96;100.00;99091.00;15295870;19;20082;-52
2022/12/02 03:35:36;;;;;;;19.27;16.27;;;;;;;-0.96;100.00;99091.00;15296710;19;20021;-56
2022/12/02 03:40:54;;;;;;;18.85;16.10;;;;;;;-0.98;100.00;99071.69;15299684;19;20019;-55
2022/12/02 03:46:22;;;;;;;18.80;16.13;;;;;;;-0.97;100.00;99068.97;15299613;19;20542;-53
2022/12/02 03:51:47;;;;;;;19.27;16.83;;;;;;;-0.97;100.00;99068.97;15299446;19;20096;-51
2022/12/02 03:57:14;;;;;;;18.95;15.93;;;;;;;-0.97;100.00;99071.63;15290323;19;21062;-56
2022/12/02 04:02:42;;;;;;;18.45;16.42;;;;;;;-0.97;100.00;99063.69;15291404;19;20073;-53
2022/12/02 04:08:07;;;;;;;21.05;17.30;;;;;;;-0.99;100.00;99054.97;15288675;19;20029;-55
2022/12/02 04:13:32;;;;;;;21.02;16.95;;;;;;;-1.01;100.00;99050.69;15281494;19;20029;-53
2022/12/02 04:19:00;;;;;;;20.75;17.33;;;;;;;-1.02;100.00;99054.25;15277640;19;20119;-52
2022/12/02 04:24:24;;;;;;;20.55;16.73;;;;;;;-1.03;100.00;99048.13;15277958;19;20081;-51
2022/12/02 04:29:49;;;;;;;18.25;15.85;;;;;;;-1.04;100.00;99049.03;15283012;19;20011;-52
2022/12/02 04:35:17;;;;;;;19.42;16.15;;;;;;;-1.04;100.00;99046.41;15280901;19;20042;-54
2022/12/02 04:40:42;;;;;;;18.88;15.25;;;;;;;-1.08;100.00;99034.25;15276341;19;20054;-54
2022/12/02 04:46:08;;;;;;;19.65;15.95;;;;;;;-1.06;100.00;99040.31;15279194;19;20014;-51
2022/12/02 04:51:35;;;;;;;19.25;15.73;;;;;;;-1.09;100.00;99041.34;15269330;19;20078;-51
2022/12/02 04:57:06;;;;;;;19.25;15.95;;;;;;;-1.09;100.00;99032.53;15273656;19;20501;-53
2022/12/02 05:02:30;;;;;;;18.75;15.30;;;;;;;-1.10;100.00;99036.97;15276668;19;20022;-55
2022/12/02 05:07:58;;;;;;;18.65;15.63;;;;;;;-1.09;100.00;99037.81;15276620;19;20090;-55
2022/12/02 05:13:22;;;;;;;19.02;15.57;;;;;;;-1.07;100.00;99045.69;15274411;19;20665;-53
2022/12/02 05:18:48;;;;;;;19.52;16.20;;;;;;;-1.07;100.00;99037.75;15269709;19;20022;-53
2022/12/02 05:24:15;;;;;;;18.98;15.65;;;;;;;-1.06;100.00;99042.13;15272950;19;20537;-55
2022/12/02 05:29:40;;;;;;;20.50;16.92;;;;;;;-1.04;100.00;99043.75;15269901;19;20093;-54
2022/12/02 05:35:05;;;;;;;19.60;16.10;;;;;;;-1.04;100.00;99041.13;15270210;19;20625;-54
2022/12/02 05:40:32;;;;;;;19.95;16.77;;;;;;;-1.03;100.00;99029.59;15265125;19;20453;-54
2022/12/02 05:46:00;;;;;;;21.08;16.77;;;;;;;-1.04;100.00;99027.00;15273904;19;20018;-51
2022/12/02 05:51:28;;;;;;;19.70;16.77;;;;;;;-1.03;100.00;99037.53;15269035;19;20093;-57
2022/12/02 05:56:57;;;;;;;19.63;16.40;;;;;;;-1.02;100.00;99044.53;15273276;19;20031;-56
2022/12/02 06:02:32;;;;;;;20.30;16.80;;;;;;;-1.01;100.00;99045.38;15267073;19;20011;-54
2022/12/02 06:08:01;;;;;;;20.13;16.98;;;;;;;-1.02;100.00;99043.66;15272710;19;20022;-55
2022/12/02 06:13:30;;;;;;;21.35;17.60;;;;;;;-1.04;100.00;99043.75;15272956;19;20014;-53
2022/12/02 06:18:55;;;;;;;20.80;17.42;;;;;;;-1.02;100.00;99039.25;15272397;19;20021;-53
2022/12/02 06:24:21;;;;;;;20.30;17.20;;;;;;;-1.00;100.00;99042.66;15273958;19;20021;-56
2022/12/02 06:29:51;;;;;;;19.48;16.63;;;;;;;-1.02;100.00;99041.91;15266314;19;20022;-55
2022/12/02 06:35:30;;;;;;;19.55;16.90;;;;;;;-0.99;100.00;99051.47;15269351;19;20022;-54
2022/12/02 06:40:54;;;;;;;19.70;16.45;;;;;;;-1.00;100.00;99047.94;15272890;19;20022;-55
2022/12/02 06:46:29;;;;;;;19.73;16.00;;;;;;;-1.01;100.00;99033.03;15271108;19;20018;-54
2022/12/02 06:51:58;;;;;;;17.98;15.32;;;;;;;-0.99;100.00;99040.88;15267288;19;20019;-56
2022/12/02 06:57:30;;;;;;;17.92;15.70;;;;;;;-0.98;100.00;99038.16;15269524;19;20605;-53
2022/12/02 07:02:58;;;;;;;18.65;16.02;;;;;;;-0.97;100.00;99042.53;15274383;19;20027;-55
2022/12/02 07:08:23;;;;;;;17.48;15.43;;;;;;;-0.96;100.00;99031.03;15272343;19;20022;-55
2022/12/02 07:13:47;;;;;;;18.58;16.08;;;;;;;-0.93;100.00;99027.34;15272802;19;20109;-56
2022/12/02 07:19:22;;;;;;;19.42;16.25;;;;;;;-0.91;100.00;99029.94;15270131;19;20022;-57
2022/12/02 07:24:53;;;;;;;18.17;16.23;;;;;;;-0.90;100.00;99027.22;15271158;19;20025;-56
2022/12/02 07:30:39;;;;;;;18.85;16.27;;;;;;;-0.89;100.00;99030.75;15268060;19;20746;-53
2022/12/02 07:36:07;;;;;;;19.48;17.40;;;;;;;-0.87;100.00;99021.78;15274959;19;20039;-59
2022/12/02 07:41:31;;;;;;;18.33;16.33;;;;;;;-0.86;100.00;99012.94;15270889;19;20021;-56
2022/12/02 07:46:56;;;;;;;18.50;16.48;;;;;;;-0.83;100.00;99011.91;15271616;19;20019;-56
2022/12/02 07:52:23;;;;;;;18.23;16.17;;;;;;;-0.81;100.00;99015.34;15275027;19;20110;-57
2022/12/02 07:57:49;;;;;;;18.88;16.80;;;;;;;-0.75;100.00;99024.78;15281194;19;20021;-57
2022/12/02 08:03:21;;;;;;;19.23;17.13;;;;;;;-0.74;100.00;99027.31;15283640;19;20035;-58
2022/12/02 08:08:49;;;;;;;19.45;17.38;;;;;;;-0.70;100.00;99022.75;15284933;19;20051;-56
2022/12/02 08:14:13;;;;;;;23.35;19.92;;;;;;;-0.71;100.00;99027.19;15285544;19;20029;-56
2022/12/02 08:19:37;;;;;;;22.17;19.73;;;;;;;-0.68;100.00;99027.03;15283661;19;20028;-54
2022/12/02 08:25:05;;;;;;;23.20;19.98;;;;;;;-0.66;100.00;99026.97;15286586;19;20031;-56
2022/12/02 08:30:30;;;;;;;20.98;18.67;;;;;;;-0.64;100.00;99023.28;15281242;19;20028;-52
2022/12/02 08:35:54;;;;;;;20.33;18.17;;;;;;;-0.61;100.00;99019.66;15284068;19;20022;-56
2022/12/02 08:41:21;;;;;;;20.95;18.65;;;;;;;-0.57;100.00;99018.56;15284698;19;20020;-55
2022/12/02 08:46:47;;;;;;;21.80;19.50;;;;;;;-0.53;100.00;99019.28;15280528;19;20049;-57
2022/12/02 08:52:12;;;;;;;20.13;18.02;;;;;;;-0.51;100.00;99006.81;15270910;19;20025;-57
2022/12/02 08:57:39;;;;;;;20.70;18.48;;;;;;;-0.50;100.00;99011.16;15277395;19;20019;-56
2022/12/02 09:03:05;;;;;;;19.48;17.40;;;;;;;-0.46;100.00;99018.03;15278927;19;20028;-55
2022/12/02 09:08:29;;;;;;;20.00;17.90;;;;;;;-0.44;100.00;99018.81;15279931;19;20345;-57
2022/12/02 09:13:57;;;;;;;19.33;17.33;;;;;;;-0.36;100.00;99016.63;15283921;19;20026;-58
2022/12/02 09:19:21;;;;;;;19.45;17.45;;;;;;;-0.33;100.00;99018.25;15276768;19;20022;-54
2022/12/02 09:24:58;;;;;;;18.92;16.98;;;;;;;-0.30;100.00;99015.47;15276378;19;20018;-56
2022/12/02 09:30:36;;;;;;;17.85;15.98;;;;;;;-0.32;100.00;99009.38;15272117;19;20022;-55
2022/12/02 09:36:01;;;;;;;17.50;15.70;;;;;;;-0.28;100.00;98995.06;15282786;19;20018;-55
2022/12/02 09:41:25;;;;;;;16.23;14.55;;;;;;;-0.29;100.00;98982.75;15275981;19;20024;-55
2022/12/02 09:46:53;;;;;;;16.52;14.82;;;;;;;-0.33;100.00;98974.13;15282633;19;20047;-58
2022/12/02 09:52:23;;;;;;;18.70;16.80;;;;;;;-0.29;100.00;98992.50;15295579;19;20488;-57
2022/12/02 09:57:49;;;;;;;19.15;17.15;;;;;;;-0.30;100.00;98989.00;15276674;19;20691;-56
2022/12/02 10:03:16;;;;;;;17.90;16.10;;;;;;;-0.32;100.00;98975.84;15269036;19;20074;-57
2022/12/02 10:08:42;;;;;;;18.13;16.27;;;;;;;-0.29;100.00;98974.81;15276562;19;20531;-57
2022/12/02 10:14:08;;;;;;;17.95;16.15;;;;;;;-0.28;100.00;98983.59;15271548;19;20019;-58
2022/12/02 10:19:35;;;;;;;18.58;16.67;;;;;;;-0.27;100.00;98966.78;15265838;19;20018;-53
2022/12/02 10:25:01;;;;;;;18.42;16.63;;;;;;;-0.27;100.00;98970.31;15270122;19;20644;-56
2022/12/02 10:30:28;;;;;;;17.80;16.10;;;;;;;-0.26;100.00;98952.59;15270711;19;20025;-53
2022/12/02 10:35:58;;;;;;;24.67;22.10;;;;;;;-0.25;100.00;98949.91;15272649;19;20010;-54
2022/12/02 10:41:28;;;;;;;19.65;17.65;;;;;;;-0.23;100.00;98941.88;15267286;19;20486;-56
2022/12/02 10:46:54;;;;;;;16.80;15.00;;;;;;;-0.21;100.00;98932.06;15274516;19;20613;-54
2022/12/02 10:52:25;;;;;;;17.00;15.30;;;;;;;-0.20;100.00;98931.13;15265453;19;20620;-56
2022/12/02 10:57:52;;;;;;;14.90;13.40;;;;;;;-0.20;100.00;98928.47;15271989;19;20348;-59
2022/12/02 11:03:18;;;;;;;14.35;12.88;;;;;;;-0.18;100.00;98923.97;15265566;19;20025;-57
2022/12/02 11:08:46;;;;;;;13.85;12.45;;;;;;;-0.18;100.00;98913.38;15271680;19;20018;-56
2022/12/02 11:14:56;;;;;;;13.48;12.18;;;;;;;-0.22;100.00;98923.25;15274045;19;20041;-57
2022/12/02 11:20:42;;;;;;;16.17;14.52;;;;;;;-0.26;100.00;98910.25;15262939;19;20018;-53
2022/12/02 11:26:11;;;;;;;20.70;18.10;;;;;;;-0.28;100.00;98914.75;15288403;19;20020;-57
2022/12/02 11:31:36;;;;;;;28.42;22.08;;;;;;;-0.36;100.00;98923.13;15283508;19;20021;-56
2022/12/02 11:37:32;;;;;;;36.88;29.20;;;;;;;-0.40;100.00;98919.75;15284982;19;20022;-56
2022/12/02 11:42:59;;;;;;;42.60;27.65;;;;;;;-0.40;100.00;98925.06;15278951;19;20014;-56
2022/12/02 11:48:24;;;;;;;49.17;29.02;;;;;;;-0.48;100.00;98916.66;15284560;19;20028;-55
2022/12/02 11:53:48;;;;;;;64.20;30.40;;;;;;;-0.53;100.00;98919.56;15274757;19;20029;-54
2022/12/02 11:59:26;;;;;;;91.13;31.75;;;;;;;-0.57;100.00;98923.28;15283958;19;20031;-55
2022/12/02 12:04:52;;;;;;;104.10;32.20;;;;;;;-0.60;100.00;98926.09;15280594;19;20027;-56
2022/12/02 12:10:31;;;;;;;92.53;34.08;;;;;;;-0.63;100.00;98929.75;15281136;19;20019;-57
2022/12/02 12:16:04;;;;;;;94.78;34.05;;;;;;;-0.63;100.00;98924.44;15286898;19;20007;-53
2022/12/02 12:21:49;;;;;;;87.43;37.30;;;;;;;-0.63;100.00;98918.31;15282805;19;20036;-56
2022/12/02 12:27:39;;;;;;;107.50;35.95;;;;;;;-0.62;100.00;98920.88;15281224;19;20074;-56
2022/12/02 12:33:07;;;;;;;120.83;41.33;;;;;;;-0.65;100.00;98921.03;15273673;19;20015;-55
2022/12/02 12:38:35;;;;;;;84.80;38.20;;;;;;;-0.65;100.00;98926.31;15284298;19;20130;-56
2022/12/02 12:44:00;;;;;;;76.85;39.08;;;;;;;-0.65;100.00;98925.47;15285007;19;20014;-54
2022/12/02 12:49:27;;;;;;;92.30;40.22;;;;;;;-0.67;100.00;98916.75;15282387;19;20475;-54
2022/12/02 12:54:52;;;;;;;86.50;44.35;;;;;;;-0.68;100.00;98915.91;15276109;19;20613;-52
2022/12/02 13:00:19;;;;;;;76.45;41.22;;;;;;;-0.70;100.00;98917.78;15276207;19;20670;-52
2022/12/02 13:05:48;;;;;;;71.78;41.67;;;;;;;-0.72;100.00;98914.34;15279053;19;20374;-53
2022/12/02 13:11:13;;;;;;;68.88;41.80;;;;;;;-0.71;100.00;98916.06;15283111;19;20017;-55
2022/12/02 13:16:38;;;;;;;62.70;36.05;;;;;;;-0.71;100.00;98916.06;15279944;19;20042;-53
2022/12/02 13:22:05;;;;;;;63.80;37.90;;;;;;;-0.72;100.00;98901.09;15280356;19;20025;-52
2022/12/02 13:27:31;;;;;;;55.63;35.65;;;;;;;-0.75;100.00;98893.31;15278413;19;20635;-55
2022/12/02 13:32:56;;;;;;;59.33;38.72;;;;;;;-0.74;100.00;98892.38;15277282;19;20026;-55
2022/12/02 13:38:23;;;;;;;55.60;34.72;;;;;;;-0.79;100.00;98889.13;15278070;19;20028;-56
2022/12/02 13:43:48;;;;;;;57.40;37.58;;;;;;;-0.79;100.00;98897.06;15277068;19;20621;-54
2022/12/02 13:49:13;;;;;;;56.50;35.13;;;;;;;-0.81;100.00;98898.94;15273236;19;20285;-57
2022/12/02 13:54:40;;;;;;;58.28;35.10;;;;;;;-0.81;100.00;98894.50;15249499;19;20057;-57
2022/12/02 14:00:08;;;;;;;56.47;35.30;;;;;;;-0.82;100.00;98891.94;15264260;19;20030;-57
2022/12/02 14:05:33;;;;;;;58.05;35.20;;;;;;;-0.86;100.00;98901.81;15271208;19;20690;-52
2022/12/02 14:11:00;;;;;;;60.15;34.53;;;;;;;-0.88;100.00;98897.53;15271724;19;20726;-52
2022/12/02 14:16:25;;;;;;;62.10;35.65;;;;;;;-0.89;100.00;98894.03;15276174;19;20021;-53
2022/12/02 14:21:50;;;;;;;61.70;35.40;;;;;;;-0.91;100.00;98908.28;15268755;19;20081;-50
2022/12/02 14:27:17;;;;;;;86.20;51.75;;;;;;;-0.90;100.00;98912.63;15274592;19;20117;-54
2022/12/02 14:32:42;;;;;;;82.97;48.33;;;;;;;-0.89;100.00;98907.25;15268254;19;20018;-59
2022/12/02 14:38:06;;;;;;;82.03;37.20;;;;;;;-0.96;100.00;98911.16;15276211;19;20144;-55
2022/12/02 14:43:40;;;;;;;85.38;48.42;;;;;;;-0.94;100.00;98912.78;15271516;19;20015;-56
2022/12/02 14:49:05;;;;;;;73.85;40.33;;;;;;;-0.97;100.00;98920.84;15275812;19;20011;-56
2022/12/02 14:54:49;;;;;;;71.07;37.88;;;;;;;-0.98;100.00;98918.31;15264037;19;20486;-57
2022/12/02 15:00:25;;;;;;;77.22;37.63;;;;;;;-0.97;100.00;98923.50;15269557;19;20102;-60
2022/12/02 15:05:50;;;;;;;80.68;38.83;;;;;;;-0.98;100.00;98927.06;15271126;19;20014;-59
2022/12/02 15:11:15;;;;;;;68.57;36.92;;;;;;;-0.98;100.00;98927.06;15276780;19;20017;-58
2022/12/02 15:16:42;;;;;;;79.70;38.80;;;;;;;-0.98;100.00;98934.16;15273485;19;20021;-56
2022/12/02 15:22:07;;;;;;;90.32;40.30;;;;;;;-1.00;100.00;98931.59;15274308;19;20018;-55
2022/12/02 15:27:32;;;;;;;90.32;40.47;;;;;;;-1.01;100.00;98935.19;15273005;19;20026;-56
2022/12/02 15:32:59;;;;;;;79.45;38.75;;;;;;;-1.03;100.00;98937.03;15268326;19;20024;-57
2022/12/02 15:38:24;;;;;;;78.13;38.97;;;;;;;-1.03;100.00;98938.81;15273721;19;20014;-56
2022/12/02 15:43:49;;;;;;;81.60;39.53;;;;;;;-1.04;100.00;98937.97;15274121;19;20022;-58
2022/12/02 15:49:17;;;;;;;65.70;35.22;;;;;;;-1.09;100.00;98951.44;15271742;19;20022;-58
2022/12/02 15:54:41;;;;;;;69.90;36.70;;;;;;;-1.10;100.00;98940.91;15261617;19;20011;-55
2022/12/02 16:00:14;;;;;;;64.78;35.70;;;;;;;-1.11;100.00;98945.34;15261112;19;20018;-57
2022/12/02 16:05:41;;;;;;;60.28;35.65;;;;;;;-1.12;100.00;98948.06;15268095;19;20029;-57
2022/12/02 16:11:06;;;;;;;67.15;38.85;;;;;;;-1.12;100.00;98951.56;15286865;19;20014;-56
2022/12/02 16:16:32;;;;;;;67.05;38.60;;;;;;;-1.13;100.00;98952.50;15280625;19;20023;-56
2022/12/02 16:21:59;;;;;;;73.35;40.03;;;;;;;-1.12;100.00;98961.28;15286750;19;20028;-55
2022/12/02 16:27:24;;;;;;;67.05;37.40;;;;;;;-1.17;100.00;98953.56;15284660;19;20015;-54
2022/12/02 16:32:48;;;;;;;67.72;37.65;;;;;;;-1.17;100.00;98960.66;15279577;19;20028;-57
2022/12/02 16:38:15;;;;;;;60.53;34.70;;;;;;;-1.16;100.00;98957.06;15283833;19;20033;-55
2022/12/02 16:43:40;;;;;;;65.97;34.70;;;;;;;-1.17;100.00;98958.84;15276954;19;20048;-53
2022/12/02 16:49:08;;;;;;;61.08;35.05;;;;;;;-1.17;100.00;98964.13;15282235;19;20391;-55
2022/12/02 16:54:35;;;;;;;58.90;34.20;;;;;;;-1.18;100.00;98965.09;15280642;19;20019;-55
2022/12/02 17:00:06;;;;;;;57.75;33.75;;;;;;;-1.19;100.00;98970.44;15281708;19;20014;-56
2022/12/02 17:05:31;;;;;;;57.08;32.42;;;;;;;-1.17;100.00;98977.34;15279262;19;20614;-54
2022/12/02 17:10:58;;;;;;;58.95;32.67;;;;;;;-1.17;100.00;98976.50;15275974;19;20082;-54
2022/12/02 17:16:24;;;;;;;65.13;35.30;;;;;;;-1.17;100.00;98968.59;15280189;19;20485;-52
2022/12/02 17:21:48;;;;;;;65.60;34.85;;;;;;;-1.19;100.00;98973.09;15274892;19;20024;-55
2022/12/02 17:27:15;;;;;;;63.80;34.70;;;;;;;-1.20;100.00;98966.06;15280414;19;20488;-56
2022/12/02 17:32:40;;;;;;;65.28;35.50;;;;;;;-1.20;100.00;98960.78;15274229;19;20038;-55
2022/12/02 17:38:14;;;;;;;64.07;34.80;;;;;;;-1.23;100.00;98960.97;15282627;19;20078;-56
2022/12/02 17:43:41;;;;;;;68.78;35.55;;;;;;;-1.25;100.00;98966.31;15294737;19;20030;-57
2022/12/02 17:49:06;;;;;;;60.22;33.72;;;;;;;-1.24;100.00;98965.38;15285754;19;20801;-57
2022/12/02 17:54:31;;;;;;;64.18;34.95;;;;;;;-1.25;100.00;98980.41;15275472;19;20014;-59
2022/12/02 18:00:06;;;;;;;56.38;32.05;;;;;;;-1.25;100.00;98971.59;15274818;19;20018;-57
2022/12/02 18:05:31;;;;;;;63.65;33.78;;;;;;;-1.27;100.00;98974.31;15273202;19;20026;-57
2022/12/02 18:10:56;;;;;;;62.13;32.70;;;;;;;-1.27;100.00;98974.31;15273988;19;20017;-54
2022/12/02 18:16:23;;;;;;;59.15;32.85;;;;;;;-1.29;100.00;98978.81;15274615;19;20023;-61
2022/12/02 18:21:48;;;;;;;63.78;34.90;;;;;;;-1.28;100.00;98974.38;15272605;19;20043;-60
2022/12/02 18:27:13;;;;;;;60.45;32.67;;;;;;;-1.30;100.00;98965.69;15275653;19;20105;-60
2022/12/02 18:32:41;;;;;;;57.47;33.10;;;;;;;-1.28;100.00;98967.31;15265116;19;20514;-56
2022/12/02 18:38:06;;;;;;;54.00;31.27;;;;;;;-1.30;100.00;98971.81;15275600;19;20021;-57
2022/12/02 18:43:30;;;;;;;53.53;31.17;;;;;;;-1.32;100.00;98973.66;15273232;19;20025;-57
2022/12/02 18:48:57;;;;;;;50.13;29.35;;;;;;;-1.32;100.00;98968.38;15272216;19;20015;-58
2022/12/02 18:54:22;;;;;;;47.78;28.60;;;;;;;-1.33;100.00;98966.66;15266298;19;20017;-57
2022/12/02 18:59:53;;;;;;;47.03;28.23;;;;;;;-1.36;100.00;98966.81;15246255;19;20029;-60
2022/12/02 19:05:20;;;;;;;45.08;27.02;;;;;;;-1.37;100.00;98970.41;15275514;19;20544;-59
2022/12/02 19:10:45;;;;;;;46.20;28.92;;;;;;;-1.36;100.00;98961.53;15271145;19;20361;-59
2022/12/02 19:16:10;;;;;;;51.42;28.52;;;;;;;-1.38;100.00;98966.03;15272483;19;20021;-58
2022/12/02 19:21:50;;;;;;;50.00;28.90;;;;;;;-1.39;100.00;98961.69;15266691;19;20023;-57
2022/12/02 19:27:15;;;;;;;;;;;;;;;-1.41;100.00;98964.38;15271030;19;20023;-55
2022/12/02 19:33:00;;;;;;;45.97;27.77;;;;;;;-1.39;100.00;98966.97;15263558;19;19919;-59
2022/12/02 19:38:27;;;;;;;45.28;27.95;;;;;;;-1.42;100.00;98961.81;15270513;19;20054;-57
2022/12/02 19:43:52;;;;;;;47.25;29.42;;;;;;;-1.43;100.00;98958.31;15273491;19;20029;-57
2022/12/02 19:49:21;;;;;;;46.17;29.02;;;;;;;-1.44;100.00;98953.97;15282344;19;20041;-58
2022/12/02 19:54:48;;;;;;;47.05;29.13;;;;;;;-1.46;100.00;98954.94;15278082;19;20025;-57
2022/12/02 20:00:23;;;;;;;39.70;26.73;;;;;;;-1.46;100.00;98957.59;15282231;19;20397;-58
2022/12/02 20:05:48;;;;;;;41.13;27.40;;;;;;;-1.47;100.00;98943.53;15282448;19;20019;-59
2022/12/02 20:11:15;;;;;;;40.40;26.42;;;;;;;-1.47;100.00;98955.91;15288768;19;20010;-60
2022/12/02 20:16:40;;;;;;;36.00;25.88;;;;;;;-1.49;100.00;98955.97;15283326;19;20011;-55
2022/12/02 20:22:04;;;;;;;39.03;26.02;;;;;;;-1.48;100.00;98962.13;15279600;19;20021;-60
2022/12/02 20:27:31;;;;;;;37.58;25.35;;;;;;;-1.51;100.00;98941.94;15282531;19;20021;-56
2022/12/02 20:32:57;;;;;;;37.85;26.02;;;;;;;-1.50;100.00;98954.25;15281309;19;20014;-58
2022/12/02 20:38:22;;;;;;;38.55;26.10;;;;;;;-1.50;100.00;98954.25;15281931;19;20025;-57
2022/12/02 20:43:49;;;;;;;36.50;25.33;;;;;;;-1.51;100.00;98949.03;15275962;19;20077;-60
2022/12/02 20:49:14;;;;;;;37.67;27.10;;;;;;;-1.52;100.00;98942.88;15280283;19;20039;-59
2022/12/02 20:54:39;;;;;;;36.80;26.52;;;;;;;-1.52;100.00;98955.25;15271862;19;20382;-59
2022/12/02 21:00:08;;;;;;;37.90;25.98;;;;;;;-1.53;100.00;98951.75;15278573;19;20017;-57
2022/12/02 21:05:34;;;;;;;33.95;24.13;;;;;;;-1.52;100.00;98942.03;15277774;19;20049;-58
2022/12/02 21:10:59;;;;;;;35.05;24.70;;;;;;;-1.53;100.00;98946.47;15279028;19;20017;-55
2022/12/02 21:16:28;;;;;;;34.85;23.98;;;;;;;-1.52;100.00;98939.41;15277615;19;20019;-58
2022/12/02 21:21:53;;;;;;;34.00;23.23;;;;;;;-1.56;100.00;98939.53;15281958;19;20029;-54
2022/12/02 21:27:17;;;;;;;34.15;24.70;;;;;;;-1.55;100.00;98946.53;15279413;19;20019;-56
2022/12/02 21:32:44;;;;;;;31.60;23.10;;;;;;;-1.57;100.00;98939.63;15273533;19;20014;-58
2022/12/02 21:38:09;;;;;;;34.85;24.35;;;;;;;-1.57;100.00;98942.25;15279019;19;20017;-58
2022/12/02 21:43:34;;;;;;;36.95;25.70;;;;;;;-1.58;100.00;98941.38;15278905;19;20022;-58
2022/12/02 21:49:01;;;;;;;38.47;26.45;;;;;;;-1.59;100.00;98937.03;15277518;19;20762;-59
2022/12/02 21:54:26;;;;;;;40.03;26.85;;;;;;;-1.59;100.00;98934.38;15276880;19;20381;-58
2022/12/02 21:59:51;;;;;;;41.15;27.77;;;;;;;-1.61;100.00;98938.91;15277615;19;20050;-57
2022/12/02 22:05:24;;;;;;;;;;;;;;;-1.65;100.00;98939.97;15279238;19;20122;-56
2022/12/02 22:10:48;;;;;;;38.08;26.02;;;;;;;-1.63;100.00;98943.41;15277012;19;19927;-59
2022/12/02 22:16:13;;;;;;;36.60;26.10;;;;;;;-1.64;100.00;98941.69;15275482;19;20018;-58
2022/12/02 22:21:40;;;;;;;36.70;26.67;;;;;;;-1.64;100.00;98940.81;15271789;19;20109;-58
2022/12/02 22:27:05;;;;;;;36.45;27.23;;;;;;;-1.63;100.00;98943.41;15277212;19;20022;-56
2022/12/02 22:32:30;;;;;;;38.63;26.63;;;;;;;-1.63;100.00;98953.09;15273789;19;20013;-58
2022/12/02 22:37:58;;;;;;;35.58;25.83;;;;;;;-1.64;100.00;98954.91;15275280;19;20014;-58
2022/12/02 22:43:23;;;;;;;36.20;26.30;;;;;;;-1.63;100.00;98951.31;15278296;19;20025;-58
2022/12/02 22:48:48;;;;;;;35.42;26.05;;;;;;;-1.65;100.00;98944.41;15270932;19;20014;-59
2022/12/02 22:54:15;;;;;;;32.80;24.60;;;;;;;-1.67;100.00;98931.25;15275232;19;20014;-58
2022/12/02 22:59:40;;;;;;;35.13;25.15;;;;;;;-1.68;100.00;98934.81;15273502;19;20018;-59
2022/12/02 23:05:04;;;;;;;35.58;25.45;;;;;;;-1.68;100.00;98945.38;15276796;19;20014;-60
2022/12/02 23:10:33;;;;;;;33.72;25.30;;;;;;;-1.69;100.00;98940.19;15273094;19;20019;-53
2022/12/02 23:15:57;;;;;;;36.70;26.27;;;;;;;-1.70;100.00;98947.22;15271006;19;20025;-58
2022/12/02 23:21:22;;;;;;;36.00;25.83;;;;;;;-1.75;100.00;98936.88;15291539;19;20010;-57
2022/12/02 23:26:50;;;;;;;34.70;24.58;;;;;;;-1.77;100.00;98935.25;15289407;19;20024;-59
2022/12/02 23:32:15;;;;;;;33.55;25.60;;;;;;;-1.79;100.00;98921.25;15290319;19;20034;-59
2022/12/02 23:37:39;;;;;;;34.40;25.52;;;;;;;-1.82;100.00;98919.63;15287982;19;20017;-57
2022/12/02 23:43:06;;;;;;;33.30;24.45;;;;;;;-1.82;100.00;98919.63;15288565;19;20018;-59
2022/12/02 23:48:31;;;;;;;34.00;25.02;;;;;;;-1.83;100.00;98917.06;15285615;19;20030;-58
2022/12/02 23:53:56;;;;;;;33.47;24.75;;;;;;;-1.83;100.00;98909.97;15278361;19;20018;-56
2022/12/02 23:59:30;;;;;;;35.65;25.45;;;;;;;-1.83;100.00;98922.34;15279328;19;20018;-60
